createdAt,value
2018-04-01T00:00:40.866Z,7.80
2018-04-01T00:03:07.831Z,7.70
2018-04-01T00:05:34.792Z,7.60
2018-04-01T00:08:01.767Z,7.60
2018-04-01T00:10:28.698Z,7.60
2018-04-01T00:12:55.678Z,7.60
2018-04-01T00:15:23.386Z,7.60
2018-04-01T00:17:50.348Z,7.50
2018-04-01T00:20:17.297Z,7.60
2018-04-01T00:22:44.247Z,7.50
2018-04-01T00:25:11.210Z,7.40
2018-04-01T00:27:38.150Z,7.20
2018-04-01T00:30:05.133Z,7.20
2018-04-01T00:32:32.100Z,7.20
2018-04-01T00:34:59.830Z,7.20
2018-04-01T00:37:26.783Z,7.20
2018-04-01T00:39:53.734Z,7.20
2018-04-01T00:42:20.712Z,7.30
2018-04-01T00:44:48.424Z,7.20
2018-04-01T00:47:15.401Z,7.10
2018-04-01T00:49:42.354Z,7.10
2018-04-01T00:52:09.336Z,7.10
2018-04-01T00:54:37.065Z,7.00
2018-04-01T00:57:04.020Z,7.10
2018-04-01T00:59:30.985Z,7.00
2018-04-01T01:01:57.953Z,6.90
2018-04-01T01:04:24.903Z,6.90
2018-04-01T01:06:52.642Z,6.90
2018-04-01T01:09:20.376Z,6.90
2018-04-01T01:11:47.334Z,6.90
2018-04-01T01:14:14.300Z,6.90
2018-04-01T01:16:41.251Z,6.90
2018-04-01T01:19:08.210Z,7.00
2018-04-01T01:21:35.174Z,7.00
2018-04-01T01:24:02.155Z,7.00
2018-04-01T01:26:29.891Z,7.00
2018-04-01T01:28:56.847Z,6.90
2018-04-01T01:31:23.832Z,7.00
2018-04-01T01:33:51.572Z,6.90
2018-04-01T01:36:18.522Z,6.90
2018-04-01T01:38:46.998Z,6.90
2018-04-01T01:41:14.776Z,6.90
2018-04-01T01:43:41.748Z,6.90
2018-04-01T01:46:08.696Z,6.70
2018-04-01T01:48:35.670Z,6.60
2018-04-01T01:51:03.407Z,6.50
2018-04-01T01:53:30.373Z,6.40
2018-04-01T01:55:57.340Z,6.50
2018-04-01T01:58:25.083Z,6.70
2018-04-01T02:00:52.040Z,6.70
2018-04-01T02:03:18.983Z,6.70
2018-04-01T02:05:45.971Z,6.80
2018-04-01T02:08:13.704Z,6.80
2018-04-01T02:10:40.715Z,6.80
2018-04-01T02:13:08.413Z,6.80
2018-04-01T02:15:35.377Z,6.80
2018-04-01T02:18:02.328Z,6.80
2018-04-01T02:20:29.295Z,6.90
2018-04-01T02:22:57.054Z,6.90
2018-04-01T02:25:24.021Z,6.90
2018-04-01T02:27:51.756Z,6.90
2018-04-01T02:30:18.719Z,6.90
2018-04-01T02:32:45.728Z,6.90
2018-04-01T02:35:12.692Z,6.90
2018-04-01T02:37:39.657Z,6.90
2018-04-01T02:40:06.633Z,6.90
2018-04-01T02:42:33.589Z,6.90
2018-04-01T02:45:00.540Z,6.80
2018-04-01T02:47:27.522Z,6.80
2018-04-01T02:49:54.491Z,6.80
2018-04-01T02:52:21.471Z,6.60
2018-04-01T02:54:48.422Z,6.60
2018-04-01T02:57:15.394Z,6.60
2018-04-01T02:59:42.359Z,6.60
2018-04-01T03:02:10.087Z,6.60
2018-04-01T03:04:37.056Z,6.60
2018-04-01T03:07:04.026Z,6.60
2018-04-01T03:09:30.967Z,6.70
2018-04-01T03:11:57.936Z,6.70
2018-04-01T03:14:25.671Z,6.70
2018-04-01T03:16:52.626Z,6.70
2018-04-01T03:19:19.583Z,6.70
2018-04-01T03:21:46.538Z,6.70
2018-04-01T03:24:13.490Z,6.70
2018-04-01T03:26:41.227Z,6.70
2018-04-01T03:29:08.180Z,6.60
2018-04-01T03:31:35.149Z,6.60
2018-04-01T03:34:02.124Z,6.60
2018-04-01T03:36:29.078Z,6.60
2018-04-01T03:38:56.799Z,6.50
2018-04-01T03:41:23.746Z,6.50
2018-04-01T03:43:50.754Z,6.40
2018-04-01T03:46:18.494Z,6.40
2018-04-01T03:48:45.479Z,6.40
2018-04-01T03:51:14.097Z,6.10
2018-04-01T03:56:14.461Z,6.00
2018-04-01T03:58:41.436Z,5.90
2018-04-01T04:01:08.452Z,6.00
2018-04-01T04:03:35.449Z,6.10
2018-04-01T04:06:02.407Z,6.10
2018-04-01T04:08:29.362Z,6.10
2018-04-01T04:10:57.095Z,6.20
2018-04-01T04:13:24.045Z,6.10
2018-04-01T04:15:51.844Z,5.80
2018-04-01T04:18:18.808Z,5.80
2018-04-01T04:20:46.550Z,5.80
2018-04-01T04:23:13.512Z,5.80
2018-04-01T04:25:40.477Z,6.20
2018-04-01T04:28:08.197Z,6.30
2018-04-01T04:30:35.182Z,6.30
2018-04-01T04:33:02.172Z,6.40
2018-04-01T04:35:29.891Z,6.20
2018-04-01T04:37:56.847Z,6.10
2018-04-01T04:40:23.819Z,6.30
2018-04-01T04:42:51.554Z,6.20
2018-04-01T04:45:18.512Z,6.20
2018-04-01T04:47:45.465Z,6.20
2018-04-01T04:50:12.437Z,6.20
2018-04-01T04:52:39.390Z,6.10
2018-04-01T04:55:06.348Z,5.90
2018-04-01T04:57:34.084Z,6.00
2018-04-01T05:00:01.029Z,6.00
2018-04-01T05:02:27.998Z,6.20
2018-04-01T05:04:54.968Z,6.10
2018-04-01T05:07:21.935Z,6.10
2018-04-01T05:09:49.663Z,6.10
2018-04-01T05:12:16.630Z,6.10
2018-04-01T05:14:43.595Z,6.10
2018-04-01T05:17:11.369Z,6.20
2018-04-01T05:19:38.312Z,6.20
2018-04-01T05:22:05.242Z,6.20
2018-04-01T05:24:32.205Z,6.30
2018-04-01T05:26:59.170Z,6.20
2018-04-01T05:29:26.136Z,6.20
2018-04-01T05:31:53.113Z,6.00
2018-04-01T05:34:20.098Z,6.10
2018-04-01T05:36:47.081Z,6.10
2018-04-01T05:39:14.020Z,6.20
2018-04-01T05:41:40.995Z,6.20
2018-04-01T05:44:08.040Z,6.30
2018-04-01T05:46:34.969Z,6.00
2018-04-01T05:49:02.717Z,5.70
2018-04-01T05:51:29.705Z,5.70
2018-04-01T05:53:56.789Z,5.90
2018-04-01T05:56:23.843Z,5.90
2018-04-01T05:58:50.809Z,5.90
2018-04-01T06:01:17.750Z,5.70
2018-04-01T06:03:44.719Z,5.80
2018-04-01T06:06:11.693Z,5.90
2018-04-01T06:08:38.682Z,5.80
2018-04-01T06:11:06.401Z,5.70
2018-04-01T06:13:33.360Z,5.60
2018-04-01T06:16:00.318Z,5.70
2018-04-01T06:18:27.289Z,5.70
2018-04-01T06:20:55.028Z,5.70
2018-04-01T06:23:22.003Z,5.60
2018-04-01T06:25:48.966Z,5.60
2018-04-01T06:28:16.707Z,5.90
2018-04-01T06:30:43.651Z,5.90
2018-04-01T06:33:10.603Z,5.60
2018-04-01T06:35:37.563Z,5.50
2018-04-01T06:38:04.523Z,5.40
2018-04-01T06:40:31.481Z,5.40
2018-04-01T06:42:58.435Z,5.70
2018-04-01T06:45:26.195Z,5.40
2018-04-01T06:47:53.095Z,5.40
2018-04-01T06:50:20.082Z,5.50
2018-04-01T06:52:47.038Z,5.70
2018-04-01T06:55:13.997Z,5.50
2018-04-01T06:57:40.967Z,5.60
2018-04-01T07:00:08.723Z,5.50
2018-04-01T07:02:35.678Z,5.50
2018-04-01T07:05:02.635Z,5.50
2018-04-01T07:07:30.356Z,5.60
2018-04-01T07:09:57.320Z,5.80
2018-04-01T07:12:24.287Z,5.80
2018-04-01T07:14:51.250Z,5.60
2018-04-01T07:17:18.222Z,5.80
2018-04-01T07:19:45.937Z,5.70
2018-04-01T07:22:12.895Z,5.70
2018-04-01T07:24:39.848Z,5.60
2018-04-01T07:27:06.813Z,5.70
2018-04-01T07:29:33.773Z,5.80
2018-04-01T07:32:00.749Z,5.80
2018-04-01T07:34:28.475Z,5.70
2018-04-01T07:36:55.462Z,5.70
2018-04-01T07:39:23.180Z,5.70
2018-04-01T07:41:50.153Z,5.70
2018-04-01T07:44:17.154Z,5.60
2018-04-01T07:46:44.879Z,5.70
2018-04-01T07:49:11.840Z,5.70
2018-04-01T07:51:38.822Z,5.70
2018-04-01T07:54:06.538Z,5.70
2018-04-01T07:56:33.502Z,5.70
2018-04-01T07:59:00.463Z,5.70
2018-04-01T08:01:27.419Z,5.70
2018-04-01T08:03:55.148Z,5.70
2018-04-01T08:06:22.115Z,5.70
2018-04-01T08:08:49.087Z,5.80
2018-04-01T08:11:16.057Z,5.80
2018-04-01T08:13:43.806Z,5.80
2018-04-01T08:16:10.763Z,5.80
2018-04-01T08:18:38.476Z,5.80
2018-04-01T08:21:05.438Z,5.80
2018-04-01T08:23:32.407Z,5.90
2018-04-01T08:25:59.378Z,5.80
2018-04-01T08:28:26.325Z,5.80
2018-04-01T08:30:53.282Z,5.80
2018-04-01T08:33:20.241Z,5.90
2018-04-01T08:35:47.970Z,5.90
2018-04-01T08:38:14.919Z,5.90
2018-04-01T08:40:41.897Z,5.90
2018-04-01T08:43:08.863Z,5.90
2018-04-01T08:45:36.605Z,5.90
2018-04-01T08:48:03.587Z,5.80
2018-04-01T08:50:31.311Z,5.80
2018-04-01T08:52:59.040Z,5.90
2018-04-01T08:55:25.991Z,5.90
2018-04-01T08:57:52.964Z,5.80
2018-04-01T09:00:19.926Z,5.90
2018-04-01T09:02:46.898Z,5.90
2018-04-01T09:05:13.904Z,5.90
2018-04-01T09:07:40.821Z,6.00
2018-04-01T09:10:07.791Z,6.00
2018-04-01T09:12:35.531Z,5.90
2018-04-01T09:15:02.506Z,5.90
2018-04-01T09:17:30.242Z,5.90
2018-04-01T09:19:57.204Z,5.90
2018-04-01T09:22:24.164Z,6.00
2018-04-01T09:24:51.117Z,6.00
2018-04-01T09:27:18.075Z,6.00
2018-04-01T09:29:45.797Z,6.10
2018-04-01T09:32:12.771Z,6.00
2018-04-01T09:34:39.740Z,6.00
2018-04-01T09:37:06.698Z,6.00
2018-04-01T09:39:34.432Z,6.00
2018-04-01T09:42:01.403Z,6.00
2018-04-01T09:44:28.397Z,6.00
2018-04-01T09:46:55.393Z,6.10
2018-04-01T09:49:22.362Z,6.10
2018-04-01T09:51:49.331Z,6.10
2018-04-01T09:54:17.128Z,6.20
2018-04-01T09:56:44.106Z,6.20
2018-04-01T09:59:11.073Z,6.30
2018-04-01T10:01:38.549Z,6.30
2018-04-01T10:04:06.012Z,6.20
2018-04-01T10:06:33.480Z,6.20
2018-04-01T10:09:01.703Z,6.20
2018-04-01T10:11:29.181Z,6.20
2018-04-01T10:13:57.402Z,6.20
2018-04-01T10:16:24.862Z,6.20
2018-04-01T10:18:52.315Z,6.20
2018-04-01T10:21:19.759Z,6.20
2018-04-01T10:23:47.222Z,6.20
2018-04-01T10:26:14.662Z,6.20
2018-04-01T10:28:42.106Z,6.20
2018-04-01T10:31:09.558Z,6.20
2018-04-01T10:33:37.780Z,6.20
2018-04-01T10:36:05.256Z,6.20
2018-04-01T10:38:32.740Z,6.10
2018-04-01T10:41:00.201Z,6.10
2018-04-01T10:43:27.685Z,6.10
2018-04-01T10:45:55.908Z,6.20
2018-04-01T10:48:23.380Z,6.20
2018-04-01T10:50:50.846Z,6.30
2018-04-01T10:53:18.297Z,6.30
2018-04-01T10:55:45.262Z,6.30
2018-04-01T10:58:12.228Z,6.40
2018-04-01T11:00:39.209Z,6.40
2018-04-01T11:03:06.944Z,6.60
2018-04-01T11:05:33.925Z,6.60
2018-04-01T11:08:00.889Z,6.70
2018-04-01T11:10:28.623Z,6.90
2018-04-01T11:12:55.558Z,6.80
2018-04-01T11:15:22.516Z,6.80
2018-04-01T11:17:49.529Z,6.70
2018-04-01T11:20:16.492Z,6.70
2018-04-01T11:22:43.485Z,6.70
2018-04-01T11:25:10.460Z,6.50
2018-04-01T11:27:38.185Z,6.40
2018-04-01T11:30:05.157Z,6.40
2018-04-01T11:32:32.114Z,6.40
2018-04-01T11:34:59.077Z,6.40
2018-04-01T11:37:26.816Z,6.30
2018-04-01T11:39:53.779Z,6.30
2018-04-01T11:42:20.730Z,6.30
2018-04-01T11:44:47.679Z,6.40
2018-04-01T11:47:14.651Z,6.30
2018-04-01T11:49:41.604Z,6.40
2018-04-01T11:52:09.333Z,6.40
2018-04-01T11:54:36.300Z,6.40
2018-04-01T11:57:03.259Z,6.40
2018-04-01T11:59:30.218Z,6.40
2018-04-01T12:01:57.184Z,6.40
2018-04-01T12:04:24.939Z,6.50
2018-04-01T12:06:51.901Z,6.40
2018-04-01T12:09:19.627Z,6.50
2018-04-01T12:11:46.581Z,6.50
2018-04-01T12:14:13.549Z,6.40
2018-04-01T12:16:40.519Z,6.40
2018-04-01T12:19:08.252Z,6.50
2018-04-01T12:21:35.232Z,6.50
2018-04-01T12:24:02.206Z,6.50
2018-04-01T12:26:30.774Z,6.40
2018-04-01T12:28:58.014Z,6.40
2018-04-01T12:31:24.984Z,6.40
2018-04-01T12:33:51.940Z,6.50
2018-04-01T12:36:19.673Z,6.30
2018-04-01T12:38:46.654Z,6.30
2018-04-01T12:41:13.611Z,6.30
2018-04-01T12:43:41.332Z,6.40
2018-04-01T12:46:08.310Z,6.30
2018-04-01T12:48:35.265Z,6.30
2018-04-01T12:51:02.240Z,6.30
2018-04-01T12:53:29.997Z,6.80
2018-04-01T12:55:56.940Z,6.80
2018-04-01T12:58:23.917Z,6.80
2018-04-01T13:00:51.645Z,6.30
2018-04-01T13:03:18.600Z,6.30
2018-04-01T13:05:45.561Z,6.40
2018-04-01T13:08:12.515Z,6.40
2018-04-01T13:10:39.474Z,6.40
2018-04-01T13:13:06.449Z,6.50
2018-04-01T13:15:33.427Z,6.50
2018-04-01T13:18:00.610Z,6.60
2018-04-01T13:20:28.210Z,6.50
2018-04-01T13:22:55.970Z,6.40
2018-04-01T13:25:22.937Z,6.40
2018-04-01T13:27:50.684Z,6.40
2018-04-01T13:30:17.657Z,6.40
2018-04-01T13:32:45.378Z,6.50
2018-04-01T13:35:12.356Z,6.50
2018-04-01T13:37:39.298Z,6.40
2018-04-01T13:40:06.248Z,6.30
2018-04-01T13:42:33.218Z,6.30
2018-04-01T13:45:00.177Z,6.30
2018-04-01T13:47:27.124Z,6.40
2018-04-01T13:49:54.870Z,6.40
2018-04-01T13:52:21.824Z,6.40
2018-04-01T13:54:48.764Z,6.40
2018-04-01T13:57:15.727Z,6.30
2018-04-01T13:59:42.674Z,6.50
2018-04-01T14:02:09.656Z,6.40
2018-04-01T14:04:37.383Z,6.30
2018-04-01T14:07:04.339Z,6.30
2018-04-01T14:09:31.292Z,6.30
2018-04-01T14:11:58.256Z,6.40
2018-04-01T14:14:25.258Z,6.40
2018-04-01T14:16:52.180Z,6.40
2018-04-01T14:19:19.913Z,6.60
2018-04-01T14:21:46.879Z,6.60
2018-04-01T14:24:13.835Z,6.70
2018-04-01T14:26:40.781Z,6.70
2018-04-01T14:29:07.757Z,6.70
2018-04-01T14:31:35.476Z,6.60
2018-04-01T14:34:02.422Z,6.60
2018-04-01T14:36:29.420Z,6.70
2018-04-01T14:38:57.150Z,6.70
2018-04-01T14:41:24.107Z,6.70
2018-04-01T14:43:51.083Z,6.80
2018-04-01T14:46:18.039Z,6.90
2018-04-01T14:48:45.008Z,7.00
2018-04-01T14:51:12.727Z,6.90
2018-04-01T14:53:39.687Z,6.90
2018-04-01T14:56:06.706Z,7.00
2018-04-01T14:58:33.643Z,6.90
2018-04-01T15:01:00.599Z,7.00
2018-04-01T15:03:27.545Z,7.00
2018-04-01T15:05:54.543Z,7.00
2018-04-01T15:08:21.585Z,7.00
2018-04-01T15:10:48.493Z,7.10
2018-04-01T15:13:15.441Z,7.10
2018-04-01T15:15:43.271Z,7.20
2018-04-01T15:18:10.252Z,7.10
2018-04-01T15:20:37.976Z,7.00
2018-04-01T15:23:04.943Z,7.00
2018-04-01T15:25:31.933Z,7.10
2018-04-01T15:27:59.655Z,7.20
2018-04-01T15:30:26.606Z,7.20
2018-04-01T15:32:53.566Z,7.30
2018-04-01T15:35:20.505Z,7.30
2018-04-01T15:37:47.465Z,7.20
2018-04-01T15:40:14.430Z,7.30
2018-04-01T15:42:41.368Z,7.20
2018-04-01T15:45:08.408Z,7.20
2018-04-01T15:47:36.098Z,7.10
2018-04-01T15:50:03.058Z,7.10
2018-04-01T15:52:30.025Z,7.00
2018-04-01T15:54:57.727Z,7.20
2018-04-01T15:57:24.749Z,7.20
2018-04-01T15:59:51.664Z,7.20
2018-04-01T16:02:18.638Z,7.00
2018-04-01T16:04:46.364Z,7.10
2018-04-01T16:07:13.320Z,7.10
2018-04-01T16:09:40.266Z,7.10
2018-04-01T16:12:07.239Z,7.10
2018-04-01T16:14:34.187Z,7.00
2018-04-01T16:17:01.166Z,7.00
2018-04-01T16:19:28.918Z,6.90
2018-04-01T16:21:55.869Z,6.90
2018-04-01T16:24:22.835Z,6.90
2018-04-01T16:26:49.806Z,7.00
2018-04-01T16:29:17.568Z,6.90
2018-04-01T16:31:45.280Z,7.00
2018-04-01T16:34:12.240Z,7.00
2018-04-01T16:36:39.196Z,6.90
2018-04-01T16:39:06.155Z,6.90
2018-04-01T16:41:33.122Z,6.80
2018-04-01T16:44:00.098Z,6.80
2018-04-01T16:46:27.814Z,6.80
2018-04-01T16:48:54.787Z,6.80
2018-04-01T16:51:21.757Z,6.70
2018-04-01T16:53:49.564Z,6.60
2018-04-01T16:56:16.557Z,6.60
2018-04-01T16:58:43.514Z,6.60
2018-04-01T17:01:10.485Z,6.40
2018-04-01T17:03:38.220Z,6.50
2018-04-01T17:06:05.166Z,6.50
2018-04-01T17:08:32.121Z,6.60
2018-04-01T17:10:59.094Z,6.80
2018-04-01T17:13:26.048Z,6.80
2018-04-01T17:15:53.016Z,6.50
2018-04-01T17:18:20.754Z,6.80
2018-04-01T17:20:47.736Z,6.80
2018-04-01T17:23:15.456Z,6.60
2018-04-01T17:25:42.419Z,6.60
2018-04-01T17:28:09.378Z,6.80
2018-04-01T17:30:36.337Z,7.00
2018-04-01T17:33:03.292Z,6.90
2018-04-01T17:35:30.296Z,6.80
2018-04-01T17:37:57.263Z,6.70
2018-04-01T17:40:24.228Z,6.80
2018-04-01T17:42:51.190Z,6.90
2018-04-01T17:45:18.137Z,6.60
2018-04-01T17:47:45.126Z,6.30
2018-04-01T17:50:12.873Z,6.40
2018-04-01T17:52:39.840Z,6.30
2018-04-01T17:55:07.579Z,6.20
2018-04-01T17:57:34.552Z,6.20
2018-04-01T18:00:02.314Z,6.50
2018-04-01T18:02:30.571Z,6.50
2018-04-01T18:04:57.535Z,6.50
2018-04-01T18:07:24.508Z,6.30
2018-04-01T18:09:52.314Z,6.70
2018-04-01T18:12:19.232Z,6.70
2018-04-01T18:14:46.972Z,6.70
2018-04-01T18:17:13.937Z,6.70
2018-04-01T18:19:40.908Z,7.00
2018-04-01T18:22:08.656Z,6.80
2018-04-01T18:24:35.628Z,6.70
2018-04-01T18:27:03.358Z,6.70
2018-04-01T18:29:31.071Z,6.70
2018-04-01T18:31:58.049Z,6.70
2018-04-01T18:34:25.020Z,6.70
2018-04-01T18:36:51.998Z,6.40
2018-04-01T18:39:18.962Z,6.20
2018-04-01T18:41:46.724Z,6.60
2018-04-01T18:44:13.703Z,6.60
2018-04-01T18:46:40.655Z,6.80
2018-04-01T18:49:07.630Z,6.90
2018-04-01T18:51:34.576Z,6.70
2018-04-01T18:54:01.548Z,6.80
2018-04-01T18:56:28.528Z,6.60
2018-04-01T18:58:55.504Z,6.60
2018-04-01T19:01:23.231Z,6.80
2018-04-01T19:03:50.199Z,6.70
2018-04-01T19:06:17.175Z,6.70
2018-04-01T19:08:44.905Z,6.90
2018-04-01T19:11:11.869Z,6.90
2018-04-01T19:13:38.826Z,6.90
2018-04-01T19:16:06.272Z,6.80
2018-04-01T19:18:33.716Z,6.90
2018-04-01T19:21:01.158Z,6.90
2018-04-01T19:23:28.627Z,6.90
2018-04-01T19:25:56.079Z,6.90
2018-04-01T19:28:23.523Z,6.80
2018-04-01T19:30:51.745Z,6.70
2018-04-01T19:33:19.227Z,6.70
2018-04-01T19:35:46.705Z,6.60
2018-04-01T19:38:14.171Z,6.70
2018-04-01T19:40:41.611Z,6.80
2018-04-01T19:43:09.079Z,6.80
2018-04-01T19:45:36.538Z,6.70
2018-04-01T19:48:04.015Z,6.60
2018-04-01T19:50:31.466Z,6.60
2018-04-01T19:52:58.944Z,6.50
2018-04-01T19:55:26.389Z,6.70
2018-04-01T19:57:53.861Z,6.70
2018-04-01T20:00:21.371Z,6.70
2018-04-01T20:02:48.821Z,6.70
2018-04-01T20:05:17.044Z,6.70
2018-04-01T20:07:44.517Z,6.70
2018-04-01T20:10:11.967Z,6.70
2018-04-01T20:12:39.405Z,6.70
2018-04-01T20:15:06.872Z,6.60
2018-04-01T20:17:34.567Z,6.60
2018-04-01T20:20:02.012Z,6.60
2018-04-01T20:22:30.227Z,6.60
2018-04-01T20:24:57.696Z,6.60
2018-04-01T20:27:25.172Z,6.60
2018-04-01T20:29:52.593Z,6.60
2018-04-01T20:32:20.051Z,6.60
2018-04-01T20:34:47.509Z,6.60
2018-04-01T20:37:15.063Z,6.60
2018-04-01T20:39:42.508Z,6.50
2018-04-01T20:42:09.982Z,6.40
2018-04-01T20:44:38.126Z,6.50
2018-04-01T20:47:06.363Z,6.50
2018-04-01T20:49:33.819Z,6.50
2018-04-01T20:52:01.279Z,6.50
2018-04-01T20:54:28.737Z,6.40
2018-04-01T20:56:56.191Z,6.40
2018-04-01T20:59:23.633Z,6.40
2018-04-01T21:01:51.885Z,6.40
2018-04-01T21:04:19.407Z,6.30
2018-04-01T21:06:46.798Z,6.30
2018-04-01T21:09:14.255Z,6.20
2018-04-01T21:11:41.703Z,6.10
2018-04-01T21:14:09.146Z,6.10
2018-04-01T21:16:37.673Z,6.10
2018-04-01T21:19:05.132Z,6.20
2018-04-01T21:21:33.355Z,6.20
2018-04-01T21:24:01.571Z,6.20
2018-04-01T21:26:29.030Z,6.20
2018-04-01T21:28:56.493Z,6.30
2018-04-01T21:31:23.965Z,6.30
2018-04-01T21:33:51.408Z,6.20
2018-04-01T21:36:18.916Z,6.20
2018-04-01T21:38:46.429Z,6.10
2018-04-01T21:41:13.906Z,6.10
2018-04-01T21:43:41.369Z,6.20
2018-04-01T21:46:08.840Z,6.20
2018-04-01T21:48:37.084Z,6.10
2018-04-01T21:51:05.307Z,6.10
2018-04-01T21:53:33.566Z,6.10
2018-04-01T21:56:01.029Z,6.10
2018-04-01T21:58:28.505Z,6.10
2018-04-01T22:00:55.996Z,6.10
2018-04-01T22:03:23.441Z,6.00
2018-04-01T22:05:50.972Z,6.00
2018-04-01T22:08:18.414Z,6.00
2018-04-01T22:10:47.328Z,5.90
2018-04-01T22:13:15.536Z,5.90
2018-04-01T22:15:43.007Z,5.90
2018-04-01T22:18:10.463Z,5.90
2018-04-01T22:20:37.921Z,5.90
2018-04-01T22:23:17.147Z,5.90
2018-04-01T22:25:44.633Z,5.90
2018-04-01T22:28:12.411Z,5.90
2018-04-01T22:30:39.880Z,5.90
2018-04-01T22:33:07.335Z,5.90
2018-04-01T22:35:34.770Z,5.90
2018-04-01T22:38:02.226Z,5.80
2018-04-01T22:40:29.682Z,5.80
2018-04-01T22:45:31.079Z,5.70
2018-04-01T22:47:58.580Z,5.70
2018-04-01T22:50:26.658Z,5.70
2018-04-01T22:52:54.133Z,5.70
2018-04-01T22:55:21.578Z,5.70
2018-04-01T22:57:49.306Z,5.70
2018-04-01T23:00:16.792Z,5.70
2018-04-01T23:02:44.256Z,5.60
2018-04-01T23:05:12.431Z,5.60
2018-04-01T23:07:39.911Z,5.60
2018-04-01T23:10:07.418Z,5.60
2018-04-01T23:12:34.885Z,5.60
2018-04-01T23:15:02.339Z,5.60
2018-04-01T23:17:29.784Z,5.60
2018-04-01T23:19:58.022Z,5.50
2018-04-01T23:22:26.219Z,5.50
2018-04-01T23:24:53.686Z,5.50
2018-04-01T23:27:21.159Z,5.50
2018-04-01T23:29:48.598Z,5.50
2018-04-01T23:32:16.088Z,5.50
2018-04-01T23:34:43.515Z,5.40
2018-04-01T23:37:10.980Z,5.40
2018-04-01T23:39:38.437Z,5.40
2018-04-01T23:42:05.895Z,5.40
2018-04-01T23:44:33.373Z,5.40
2018-04-01T23:47:00.828Z,5.40
2018-04-01T23:49:28.284Z,5.40
2018-04-01T23:51:55.770Z,5.40
2018-04-01T23:54:23.210Z,5.30
2018-04-01T23:56:50.660Z,5.30
2018-04-01T23:59:18.112Z,5.20
